sensor_id;sensor_type;location;lat;lon;timestamp;P1;durP1;ratioP1;P2;durP2;ratioP2
21697;SDS011;11010;49.548;11.926;2022-08-01T00:01:13;7.18;;;2.45;;
21697;SDS011;11010;49.548;11.926;2022-08-01T00:03:41;6.75;;;2.50;;
21697;SDS011;11010;49.548;11.926;2022-08-01T00:06:09;7.82;;;2.45;;
21697;SDS011;11010;49.548;11.926;2022-08-01T00:08:36;7.40;;;2.70;;
21697;SDS011;11010;49.548;11.926;2022-08-01T00:11:04;6.95;;;2.38;;
21697;SDS011;11010;49.548;11.926;2022-08-01T00:13:38;7.50;;;2.65;;
21697;SDS011;11010;49.548;11.926;2022-08-01T00:16:06;7.00;;;2.70;;
21697;SDS011;11010;49.548;11.926;2022-08-01T00:18:34;7.93;;;2.65;;
21697;SDS011;11010;49.548;11.926;2022-08-01T00:21:03;7.80;;;2.80;;
21697;SDS011;11010;49.548;11.926;2022-08-01T00:23:31;7.30;;;2.60;;
21697;SDS011;11010;49.548;11.926;2022-08-01T00:25:58;7.20;;;2.60;;
21697;SDS011;11010;49.548;11.926;2022-08-01T00:28:26;7.18;;;2.50;;
21697;SDS011;11010;49.548;11.926;2022-08-01T00:30:54;8.38;;;2.50;;
21697;SDS011;11010;49.548;11.926;2022-08-01T00:33:21;8.20;;;2.70;;
21697;SDS011;11010;49.548;11.926;2022-08-01T00:35:49;8.82;;;2.85;;
21697;SDS011;11010;49.548;11.926;2022-08-01T00:38:16;6.70;;;2.45;;
21697;SDS011;11010;49.548;11.926;2022-08-01T00:40:44;6.57;;;2.53;;
21697;SDS011;11010;49.548;11.926;2022-08-01T00:43:12;7.22;;;2.58;;
21697;SDS011;11010;49.548;11.926;2022-08-01T00:45:40;6.88;;;2.47;;
21697;SDS011;11010;49.548;11.926;2022-08-01T00:48:07;8.35;;;2.85;;
21697;SDS011;11010;49.548;11.926;2022-08-01T00:50:35;8.00;;;2.63;;
21697;SDS011;11010;49.548;11.926;2022-08-01T00:53:03;8.35;;;2.60;;
21697;SDS011;11010;49.548;11.926;2022-08-01T00:55:31;8.23;;;2.47;;
21697;SDS011;11010;49.548;11.926;2022-08-01T00:57:59;7.18;;;2.72;;
21697;SDS011;11010;49.548;11.926;2022-08-01T01:00:32;8.02;;;2.80;;
21697;SDS011;11010;49.548;11.926;2022-08-01T01:03:20;6.82;;;2.45;;
21697;SDS011;11010;49.548;11.926;2022-08-01T01:06:14;7.10;;;2.47;;
21697;SDS011;11010;49.548;11.926;2022-08-01T01:12:04;7.82;;;2.80;;
21697;SDS011;11010;49.548;11.926;2022-08-01T01:14:42;6.90;;;2.60;;
21697;SDS011;11010;49.548;11.926;2022-08-01T01:17:17;7.95;;;2.60;;
21697;SDS011;11010;49.548;11.926;2022-08-01T01:20:12;9.30;;;2.95;;
21697;SDS011;11010;49.548;11.926;2022-08-01T01:22:50;6.82;;;2.40;;
21697;SDS011;11010;49.548;11.926;2022-08-01T01:30:57;11.65;;;2.80;;
21697;SDS011;11010;49.548;11.926;2022-08-01T01:33:25;7.55;;;2.80;;
21697;SDS011;11010;49.548;11.926;2022-08-01T01:35:57;7.45;;;2.63;;
21697;SDS011;11010;49.548;11.926;2022-08-01T01:38:28;7.18;;;2.50;;
21697;SDS011;11010;49.548;11.926;2022-08-01T01:41:00;7.38;;;2.70;;
21697;SDS011;11010;49.548;11.926;2022-08-01T01:43:29;6.95;;;2.72;;
21697;SDS011;11010;49.548;11.926;2022-08-01T01:46:00;7.65;;;2.90;;
21697;SDS011;11010;49.548;11.926;2022-08-01T01:48:29;7.82;;;2.63;;
21697;SDS011;11010;49.548;11.926;2022-08-01T01:50:59;8.02;;;2.90;;
21697;SDS011;11010;49.548;11.926;2022-08-01T01:53:28;7.00;;;2.75;;
21697;SDS011;11010;49.548;11.926;2022-08-01T01:55:57;8.18;;;2.75;;
21697;SDS011;11010;49.548;11.926;2022-08-01T01:58:27;7.68;;;2.95;;
21697;SDS011;11010;49.548;11.926;2022-08-01T02:00:58;6.95;;;2.67;;
21697;SDS011;11010;49.548;11.926;2022-08-01T02:03:29;7.45;;;2.50;;
21697;SDS011;11010;49.548;11.926;2022-08-01T02:05:58;7.05;;;2.50;;
21697;SDS011;11010;49.548;11.926;2022-08-01T02:08:27;8.23;;;2.67;;
21697;SDS011;11010;49.548;11.926;2022-08-01T02:10:58;6.90;;;2.70;;
21697;SDS011;11010;49.548;11.926;2022-08-01T02:14:06;7.53;;;2.70;;
21697;SDS011;11010;49.548;11.926;2022-08-01T02:16:35;8.15;;;2.80;;
21697;SDS011;11010;49.548;11.926;2022-08-01T02:19:06;7.20;;;2.50;;
21697;SDS011;11010;49.548;11.926;2022-08-01T02:21:39;9.82;;;2.70;;
21697;SDS011;11010;49.548;11.926;2022-08-01T02:27:12;7.88;;;2.78;;
21697;SDS011;11010;49.548;11.926;2022-08-01T02:29:50;8.00;;;2.75;;
21697;SDS011;11010;49.548;11.926;2022-08-01T02:32:30;8.30;;;3.05;;
21697;SDS011;11010;49.548;11.926;2022-08-01T02:35:04;6.80;;;2.40;;
21697;SDS011;11010;49.548;11.926;2022-08-01T02:37:37;8.52;;;2.88;;
21697;SDS011;11010;49.548;11.926;2022-08-01T02:40:12;7.38;;;2.70;;
21697;SDS011;11010;49.548;11.926;2022-08-01T02:42:43;8.02;;;3.10;;
21697;SDS011;11010;49.548;11.926;2022-08-01T02:45:19;7.40;;;2.70;;
21697;SDS011;11010;49.548;11.926;2022-08-01T02:47:51;7.65;;;3.00;;
21697;SDS011;11010;49.548;11.926;2022-08-01T02:50:22;7.35;;;2.67;;
21697;SDS011;11010;49.548;11.926;2022-08-01T02:52:52;8.57;;;2.75;;
21697;SDS011;11010;49.548;11.926;2022-08-01T02:55:21;7.97;;;2.83;;
21697;SDS011;11010;49.548;11.926;2022-08-01T02:57:50;7.28;;;2.88;;
21697;SDS011;11010;49.548;11.926;2022-08-01T03:00:25;6.85;;;2.67;;
21697;SDS011;11010;49.548;11.926;2022-08-01T03:02:54;7.38;;;2.72;;
21697;SDS011;11010;49.548;11.926;2022-08-01T03:05:24;8.88;;;2.70;;
21697;SDS011;11010;49.548;11.926;2022-08-01T03:07:53;7.70;;;2.83;;
21697;SDS011;11010;49.548;11.926;2022-08-01T03:10:28;7.28;;;2.90;;
21697;SDS011;11010;49.548;11.926;2022-08-01T03:12:58;7.70;;;2.72;;
21697;SDS011;11010;49.548;11.926;2022-08-01T03:15:28;8.48;;;2.90;;
21697;SDS011;11010;49.548;11.926;2022-08-01T03:18:06;8.52;;;2.80;;
21697;SDS011;11010;49.548;11.926;2022-08-01T03:20:36;7.82;;;2.80;;
21697;SDS011;11010;49.548;11.926;2022-08-01T03:23:05;7.82;;;2.85;;
21697;SDS011;11010;49.548;11.926;2022-08-01T03:25:34;7.80;;;2.83;;
21697;SDS011;11010;49.548;11.926;2022-08-01T03:28:05;9.10;;;3.03;;
21697;SDS011;11010;49.548;11.926;2022-08-01T03:30:36;8.57;;;3.10;;
21697;SDS011;11010;49.548;11.926;2022-08-01T03:33:04;7.30;;;3.03;;
21697;SDS011;11010;49.548;11.926;2022-08-01T03:35:48;8.25;;;2.90;;
21697;SDS011;11010;49.548;11.926;2022-08-01T03:38:21;10.02;;;3.10;;
21697;SDS011;11010;49.548;11.926;2022-08-01T03:40:55;7.65;;;2.92;;
21697;SDS011;11010;49.548;11.926;2022-08-01T03:46:28;7.20;;;2.60;;
21697;SDS011;11010;49.548;11.926;2022-08-01T03:49:00;7.78;;;3.00;;
21697;SDS011;11010;49.548;11.926;2022-08-01T03:51:33;8.50;;;2.88;;
21697;SDS011;11010;49.548;11.926;2022-08-01T03:54:01;7.20;;;2.70;;
21697;SDS011;11010;49.548;11.926;2022-08-01T03:56:31;8.00;;;3.15;;
21697;SDS011;11010;49.548;11.926;2022-08-01T03:59:00;7.38;;;2.80;;
21697;SDS011;11010;49.548;11.926;2022-08-01T04:01:31;8.90;;;2.88;;
21697;SDS011;11010;49.548;11.926;2022-08-01T04:03:59;8.00;;;2.90;;
21697;SDS011;11010;49.548;11.926;2022-08-01T04:06:28;8.15;;;2.80;;
21697;SDS011;11010;49.548;11.926;2022-08-01T04:08:56;8.05;;;2.92;;
21697;SDS011;11010;49.548;11.926;2022-08-01T04:11:24;7.70;;;2.85;;
21697;SDS011;11010;49.548;11.926;2022-08-01T04:13:54;8.13;;;2.75;;
21697;SDS011;11010;49.548;11.926;2022-08-01T04:16:23;7.85;;;3.00;;
21697;SDS011;11010;49.548;11.926;2022-08-01T04:18:51;7.60;;;2.92;;
21697;SDS011;11010;49.548;11.926;2022-08-01T04:21:20;8.02;;;3.17;;
21697;SDS011;11010;49.548;11.926;2022-08-01T04:23:51;6.95;;;2.63;;
21697;SDS011;11010;49.548;11.926;2022-08-01T04:26:21;8.82;;;3.10;;
21697;SDS011;11010;49.548;11.926;2022-08-01T04:28:50;8.15;;;2.88;;
21697;SDS011;11010;49.548;11.926;2022-08-01T04:31:22;10.07;;;2.95;;
21697;SDS011;11010;49.548;11.926;2022-08-01T04:33:53;8.05;;;2.80;;
21697;SDS011;11010;49.548;11.926;2022-08-01T04:36:22;7.15;;;2.45;;
21697;SDS011;11010;49.548;11.926;2022-08-01T04:38:54;7.80;;;2.95;;
21697;SDS011;11010;49.548;11.926;2022-08-01T04:41:26;7.03;;;2.65;;
21697;SDS011;11010;49.548;11.926;2022-08-01T04:43:57;8.10;;;3.08;;
21697;SDS011;11010;49.548;11.926;2022-08-01T04:46:29;7.50;;;2.80;;
21697;SDS011;11010;49.548;11.926;2022-08-01T04:48:57;8.00;;;2.75;;
21697;SDS011;11010;49.548;11.926;2022-08-01T04:51:27;7.97;;;2.75;;
21697;SDS011;11010;49.548;11.926;2022-08-01T04:53:54;7.65;;;3.00;;
21697;SDS011;11010;49.548;11.926;2022-08-01T04:56:24;7.55;;;2.80;;
21697;SDS011;11010;49.548;11.926;2022-08-01T04:58:52;6.95;;;2.65;;
21697;SDS011;11010;49.548;11.926;2022-08-01T05:01:49;8.70;;;3.00;;
21697;SDS011;11010;49.548;11.926;2022-08-01T05:04:17;7.10;;;2.72;;
21697;SDS011;11010;49.548;11.926;2022-08-01T05:06:45;7.13;;;2.70;;
21697;SDS011;11010;49.548;11.926;2022-08-01T05:09:12;7.40;;;2.70;;
21697;SDS011;11010;49.548;11.926;2022-08-01T05:11:40;7.55;;;2.60;;
21697;SDS011;11010;49.548;11.926;2022-08-01T05:14:08;8.63;;;2.85;;
21697;SDS011;11010;49.548;11.926;2022-08-01T05:16:35;7.20;;;2.78;;
21697;SDS011;11010;49.548;11.926;2022-08-01T05:19:03;8.27;;;2.60;;
21697;SDS011;11010;49.548;11.926;2022-08-01T05:21:30;6.85;;;2.40;;
21697;SDS011;11010;49.548;11.926;2022-08-01T05:23:58;8.27;;;2.45;;
21697;SDS011;11010;49.548;11.926;2022-08-01T05:26:26;6.53;;;2.50;;
21697;SDS011;11010;49.548;11.926;2022-08-01T05:28:54;7.22;;;2.60;;
21697;SDS011;11010;49.548;11.926;2022-08-01T05:31:22;6.93;;;2.70;;
21697;SDS011;11010;49.548;11.926;2022-08-01T05:33:49;8.18;;;2.42;;
21697;SDS011;11010;49.548;11.926;2022-08-01T05:36:17;9.05;;;2.53;;
21697;SDS011;11010;49.548;11.926;2022-08-01T05:38:45;9.95;;;2.55;;
21697;SDS011;11010;49.548;11.926;2022-08-01T05:41:12;7.15;;;2.45;;
21697;SDS011;11010;49.548;11.926;2022-08-01T05:43:40;6.82;;;2.47;;
21697;SDS011;11010;49.548;11.926;2022-08-01T05:46:07;7.97;;;2.40;;
21697;SDS011;11010;49.548;11.926;2022-08-01T05:48:35;6.43;;;2.20;;
21697;SDS011;11010;49.548;11.926;2022-08-01T05:51:03;7.40;;;2.50;;
21697;SDS011;11010;49.548;11.926;2022-08-01T05:53:30;7.13;;;2.45;;
21697;SDS011;11010;49.548;11.926;2022-08-01T05:56:01;6.70;;;2.20;;
21697;SDS011;11010;49.548;11.926;2022-08-01T05:58:28;8.27;;;2.50;;
21697;SDS011;11010;49.548;11.926;2022-08-01T06:00:56;6.85;;;2.38;;
21697;SDS011;11010;49.548;11.926;2022-08-01T06:03:24;8.10;;;2.33;;
21697;SDS011;11010;49.548;11.926;2022-08-01T06:05:52;8.05;;;2.55;;
21697;SDS011;11010;49.548;11.926;2022-08-01T06:08:20;6.65;;;2.20;;
21697;SDS011;11010;49.548;11.926;2022-08-01T06:10:47;6.88;;;2.17;;
21697;SDS011;11010;49.548;11.926;2022-08-01T06:13:15;7.40;;;2.20;;
21697;SDS011;11010;49.548;11.926;2022-08-01T06:15:44;7.30;;;2.30;;
21697;SDS011;11010;49.548;11.926;2022-08-01T06:18:12;7.53;;;2.28;;
21697;SDS011;11010;49.548;11.926;2022-08-01T06:20:40;7.43;;;2.30;;
21697;SDS011;11010;49.548;11.926;2022-08-01T06:23:08;6.90;;;2.45;;
21697;SDS011;11010;49.548;11.926;2022-08-01T06:25:56;6.38;;;2.03;;
21697;SDS011;11010;49.548;11.926;2022-08-01T06:28:25;8.32;;;2.00;;
21697;SDS011;11010;49.548;11.926;2022-08-01T06:30:52;6.50;;;2.20;;
21697;SDS011;11010;49.548;11.926;2022-08-01T06:33:20;6.25;;;2.22;;
21697;SDS011;11010;49.548;11.926;2022-08-01T06:35:48;7.07;;;2.35;;
21697;SDS011;11010;49.548;11.926;2022-08-01T06:38:15;6.45;;;2.25;;
21697;SDS011;11010;49.548;11.926;2022-08-01T06:40:43;7.18;;;2.20;;
21697;SDS011;11010;49.548;11.926;2022-08-01T06:43:11;6.35;;;2.10;;
21697;SDS011;11010;49.548;11.926;2022-08-01T06:45:39;7.47;;;2.10;;
21697;SDS011;11010;49.548;11.926;2022-08-01T06:48:07;8.13;;;2.40;;
21697;SDS011;11010;49.548;11.926;2022-08-01T06:50:35;6.40;;;2.33;;
21697;SDS011;11010;49.548;11.926;2022-08-01T06:53:03;7.63;;;2.38;;
21697;SDS011;11010;49.548;11.926;2022-08-01T06:55:31;7.13;;;2.20;;
21697;SDS011;11010;49.548;11.926;2022-08-01T06:57:58;7.30;;;2.20;;
21697;SDS011;11010;49.548;11.926;2022-08-01T07:00:26;8.15;;;2.22;;
21697;SDS011;11010;49.548;11.926;2022-08-01T07:02:55;7.30;;;2.47;;
21697;SDS011;11010;49.548;11.926;2022-08-01T07:05:24;8.35;;;2.40;;
21697;SDS011;11010;49.548;11.926;2022-08-01T07:07:51;8.25;;;2.40;;
21697;SDS011;11010;49.548;11.926;2022-08-01T07:10:19;8.93;;;2.20;;
21697;SDS011;11010;49.548;11.926;2022-08-01T07:12:47;7.35;;;2.38;;
21697;SDS011;11010;49.548;11.926;2022-08-01T07:15:15;6.57;;;2.03;;
21697;SDS011;11010;49.548;11.926;2022-08-01T07:17:42;6.78;;;1.98;;
21697;SDS011;11010;49.548;11.926;2022-08-01T07:20:11;6.40;;;2.08;;
21697;SDS011;11010;49.548;11.926;2022-08-01T07:22:42;7.50;;;2.40;;
21697;SDS011;11010;49.548;11.926;2022-08-01T07:25:13;7.65;;;2.20;;
21697;SDS011;11010;49.548;11.926;2022-08-01T07:27:41;7.13;;;2.42;;
21697;SDS011;11010;49.548;11.926;2022-08-01T07:30:10;7.07;;;2.40;;
21697;SDS011;11010;49.548;11.926;2022-08-01T07:32:38;7.68;;;2.47;;
21697;SDS011;11010;49.548;11.926;2022-08-01T07:35:06;6.82;;;2.15;;
21697;SDS011;11010;49.548;11.926;2022-08-01T07:37:34;7.22;;;2.25;;
21697;SDS011;11010;49.548;11.926;2022-08-01T07:40:15;6.95;;;2.17;;
21697;SDS011;11010;49.548;11.926;2022-08-01T07:42:44;6.82;;;2.20;;
21697;SDS011;11010;49.548;11.926;2022-08-01T07:45:13;7.78;;;2.50;;
21697;SDS011;11010;49.548;11.926;2022-08-01T07:47:42;7.65;;;2.60;;
21697;SDS011;11010;49.548;11.926;2022-08-01T07:50:10;8.20;;;2.45;;
21697;SDS011;11010;49.548;11.926;2022-08-01T07:52:39;6.95;;;2.20;;
21697;SDS011;11010;49.548;11.926;2022-08-01T07:55:07;7.57;;;2.40;;
21697;SDS011;11010;49.548;11.926;2022-08-01T07:57:36;6.80;;;2.30;;
21697;SDS011;11010;49.548;11.926;2022-08-01T08:00:05;6.95;;;2.15;;
21697;SDS011;11010;49.548;11.926;2022-08-01T08:02:35;9.15;;;2.13;;
21697;SDS011;11010;49.548;11.926;2022-08-01T08:05:03;8.18;;;2.25;;
21697;SDS011;11010;49.548;11.926;2022-08-01T08:07:31;7.55;;;2.40;;
21697;SDS011;11010;49.548;11.926;2022-08-01T08:09:59;6.90;;;2.22;;
21697;SDS011;11010;49.548;11.926;2022-08-01T08:12:47;6.68;;;2.20;;
21697;SDS011;11010;49.548;11.926;2022-08-01T08:15:15;5.95;;;1.90;;
21697;SDS011;11010;49.548;11.926;2022-08-01T08:17:42;7.97;;;1.80;;
21697;SDS011;11010;49.548;11.926;2022-08-01T08:20:20;7.25;;;2.00;;
21697;SDS011;11010;49.548;11.926;2022-08-01T08:22:56;5.38;;;1.70;;
21697;SDS011;11010;49.548;11.926;2022-08-01T08:25:25;4.93;;;1.70;;
21697;SDS011;11010;49.548;11.926;2022-08-01T08:27:55;5.65;;;1.65;;
21697;SDS011;11010;49.548;11.926;2022-08-01T08:30:23;7.07;;;2.00;;
21697;SDS011;11010;49.548;11.926;2022-08-01T08:32:51;6.80;;;1.90;;
21697;SDS011;11010;49.548;11.926;2022-08-01T08:35:18;6.65;;;2.10;;
21697;SDS011;11010;49.548;11.926;2022-08-01T08:38:06;5.50;;;1.70;;
21697;SDS011;11010;49.548;11.926;2022-08-01T08:40:36;7.03;;;1.92;;
21697;SDS011;11010;49.548;11.926;2022-08-01T08:43:05;6.70;;;2.25;;
21697;SDS011;11010;49.548;11.926;2022-08-01T08:45:33;7.00;;;1.92;;
21697;SDS011;11010;49.548;11.926;2022-08-01T08:48:21;6.35;;;1.92;;
21697;SDS011;11010;49.548;11.926;2022-08-01T08:50:53;5.95;;;1.80;;
21697;SDS011;11010;49.548;11.926;2022-08-01T08:53:24;6.82;;;1.90;;
21697;SDS011;11010;49.548;11.926;2022-08-01T08:56:00;6.85;;;2.05;;
21697;SDS011;11010;49.548;11.926;2022-08-01T08:58:29;8.60;;;1.90;;
21697;SDS011;11010;49.548;11.926;2022-08-01T09:01:00;6.50;;;1.83;;
21697;SDS011;11010;49.548;11.926;2022-08-01T09:03:28;10.85;;;2.30;;
21697;SDS011;11010;49.548;11.926;2022-08-01T09:05:56;6.13;;;1.90;;
21697;SDS011;11010;49.548;11.926;2022-08-01T09:08:24;6.22;;;1.70;;
21697;SDS011;11010;49.548;11.926;2022-08-01T09:10:52;5.60;;;1.80;;
21697;SDS011;11010;49.548;11.926;2022-08-01T09:13:20;8.20;;;1.80;;
21697;SDS011;11010;49.548;11.926;2022-08-01T09:15:49;6.88;;;1.70;;
21697;SDS011;11010;49.548;11.926;2022-08-01T09:18:37;6.55;;;1.98;;
21697;SDS011;11010;49.548;11.926;2022-08-01T09:21:20;6.10;;;1.65;;
21697;SDS011;11010;49.548;11.926;2022-08-01T09:23:51;6.72;;;1.85;;
21697;SDS011;11010;49.548;11.926;2022-08-01T09:26:21;7.75;;;2.03;;
21697;SDS011;11010;49.548;11.926;2022-08-01T09:29:04;6.53;;;1.80;;
21697;SDS011;11010;49.548;11.926;2022-08-01T09:31:39;7.85;;;1.90;;
21697;SDS011;11010;49.548;11.926;2022-08-01T09:34:14;6.03;;;1.88;;
21697;SDS011;11010;49.548;11.926;2022-08-01T09:36:46;6.53;;;1.75;;
21697;SDS011;11010;49.548;11.926;2022-08-01T09:39:20;5.45;;;1.63;;
21697;SDS011;11010;49.548;11.926;2022-08-01T09:41:50;6.65;;;1.73;;
21697;SDS011;11010;49.548;11.926;2022-08-01T09:44:25;6.00;;;1.60;;
21697;SDS011;11010;49.548;11.926;2022-08-01T09:47:20;5.97;;;1.73;;
21697;SDS011;11010;49.548;11.926;2022-08-01T09:49:54;6.43;;;1.80;;
21697;SDS011;11010;49.548;11.926;2022-08-01T09:52:25;5.80;;;1.80;;
21697;SDS011;11010;49.548;11.926;2022-08-01T09:57:27;7.07;;;1.77;;
21697;SDS011;11010;49.548;11.926;2022-08-01T09:59:57;6.30;;;1.88;;
21697;SDS011;11010;49.548;11.926;2022-08-01T10:02:39;5.70;;;1.70;;
21697;SDS011;11010;49.548;11.926;2022-08-01T10:05:08;7.45;;;1.80;;
21697;SDS011;11010;49.548;11.926;2022-08-01T10:07:56;5.13;;;1.40;;
21697;SDS011;11010;49.548;11.926;2022-08-01T10:10:25;5.95;;;1.50;;
21697;SDS011;11010;49.548;11.926;2022-08-01T10:12:57;4.53;;;1.40;;
21697;SDS011;11010;49.548;11.926;2022-08-01T10:15:28;6.68;;;1.40;;
21697;SDS011;11010;49.548;11.926;2022-08-01T10:18:06;6.10;;;1.60;;
21697;SDS011;11010;49.548;11.926;2022-08-01T10:20:52;5.68;;;1.45;;
21697;SDS011;11010;49.548;11.926;2022-08-01T10:23:24;5.40;;;1.70;;
21697;SDS011;11010;49.548;11.926;2022-08-01T10:26:06;4.80;;;1.27;;
21697;SDS011;11010;49.548;11.926;2022-08-01T10:28:35;6.15;;;1.45;;
21697;SDS011;11010;49.548;11.926;2022-08-01T10:31:07;5.57;;;1.45;;
21697;SDS011;11010;49.548;11.926;2022-08-01T10:33:40;5.80;;;1.40;;
21697;SDS011;11010;49.548;11.926;2022-08-01T10:36:21;4.53;;;1.35;;
21697;SDS011;11010;49.548;11.926;2022-08-01T10:38:52;4.68;;;1.20;;
21697;SDS011;11010;49.548;11.926;2022-08-01T10:41:21;5.07;;;1.30;;
21697;SDS011;11010;49.548;11.926;2022-08-01T10:43:52;5.03;;;1.25;;
21697;SDS011;11010;49.548;11.926;2022-08-01T10:46:21;6.05;;;1.40;;
21697;SDS011;11010;49.548;11.926;2022-08-01T10:49:01;4.35;;;1.30;;
21697;SDS011;11010;49.548;11.926;2022-08-01T10:51:37;6.05;;;1.40;;
21697;SDS011;11010;49.548;11.926;2022-08-01T10:54:20;4.90;;;1.50;;
21697;SDS011;11010;49.548;11.926;2022-08-01T10:56:51;5.28;;;1.50;;
21697;SDS011;11010;49.548;11.926;2022-08-01T11:02:09;3.85;;;1.30;;
21697;SDS011;11010;49.548;11.926;2022-08-01T11:07:23;8.48;;;1.60;;
21697;SDS011;11010;49.548;11.926;2022-08-01T11:10:25;4.47;;;1.38;;
21697;SDS011;11010;49.548;11.926;2022-08-01T11:12:58;6.57;;;1.70;;
21697;SDS011;11010;49.548;11.926;2022-08-01T11:15:30;4.85;;;1.55;;
21697;SDS011;11010;49.548;11.926;2022-08-01T11:17:58;8.20;;;1.60;;
21697;SDS011;11010;49.548;11.926;2022-08-01T11:20:29;4.60;;;1.45;;
21697;SDS011;11010;49.548;11.926;2022-08-01T11:23:46;5.13;;;1.50;;
21697;SDS011;11010;49.548;11.926;2022-08-01T11:26:16;4.40;;;1.52;;
21697;SDS011;11010;49.548;11.926;2022-08-01T11:29:11;6.50;;;1.70;;
21697;SDS011;11010;49.548;11.926;2022-08-01T11:31:47;6.22;;;1.55;;
21697;SDS011;11010;49.548;11.926;2022-08-01T11:34:15;5.05;;;1.40;;
21697;SDS011;11010;49.548;11.926;2022-08-01T11:36:43;4.82;;;1.40;;
21697;SDS011;11010;49.548;11.926;2022-08-01T11:39:28;5.40;;;1.60;;
21697;SDS011;11010;49.548;11.926;2022-08-01T11:42:17;5.60;;;1.63;;
21697;SDS011;11010;49.548;11.926;2022-08-01T11:44:49;5.57;;;1.65;;
21697;SDS011;11010;49.548;11.926;2022-08-01T11:47:18;4.88;;;1.40;;
21697;SDS011;11010;49.548;11.926;2022-08-01T11:50:05;4.40;;;1.30;;
21697;SDS011;11010;49.548;11.926;2022-08-01T11:52:33;6.15;;;1.40;;
21697;SDS011;11010;49.548;11.926;2022-08-01T11:55:08;8.73;;;1.70;;
21697;SDS011;11010;49.548;11.926;2022-08-01T11:57:39;6.47;;;1.58;;
21697;SDS011;11010;49.548;11.926;2022-08-01T12:00:17;5.10;;;1.30;;
21697;SDS011;11010;49.548;11.926;2022-08-01T12:02:45;4.93;;;1.38;;
21697;SDS011;11010;49.548;11.926;2022-08-01T12:05:15;4.70;;;1.40;;
21697;SDS011;11010;49.548;11.926;2022-08-01T12:07:51;4.32;;;1.40;;
21697;SDS011;11010;49.548;11.926;2022-08-01T12:10:20;5.45;;;1.40;;
21697;SDS011;11010;49.548;11.926;2022-08-01T12:12:55;7.78;;;1.60;;
21697;SDS011;11010;49.548;11.926;2022-08-01T12:15:29;4.32;;;1.30;;
21697;SDS011;11010;49.548;11.926;2022-08-01T12:18:02;4.50;;;1.40;;
21697;SDS011;11010;49.548;11.926;2022-08-01T12:20:38;5.40;;;1.42;;
21697;SDS011;11010;49.548;11.926;2022-08-01T12:23:21;4.45;;;1.20;;
21697;SDS011;11010;49.548;11.926;2022-08-01T12:25:52;3.67;;;1.25;;
21697;SDS011;11010;49.548;11.926;2022-08-01T12:28:20;4.45;;;1.33;;
21697;SDS011;11010;49.548;11.926;2022-08-01T12:30:48;4.43;;;1.25;;
21697;SDS011;11010;49.548;11.926;2022-08-01T12:33:17;3.45;;;1.10;;
21697;SDS011;11010;49.548;11.926;2022-08-01T12:35:46;4.45;;;1.30;;
21697;SDS011;11010;49.548;11.926;2022-08-01T12:38:15;4.28;;;1.30;;
21697;SDS011;11010;49.548;11.926;2022-08-01T12:40:45;4.35;;;1.20;;
21697;SDS011;11010;49.548;11.926;2022-08-01T12:43:19;3.63;;;1.20;;
21697;SDS011;11010;49.548;11.926;2022-08-01T12:45:55;4.03;;;1.20;;
21697;SDS011;11010;49.548;11.926;2022-08-01T12:48:25;6.97;;;1.50;;
21697;SDS011;11010;49.548;11.926;2022-08-01T12:50:54;5.20;;;1.40;;
21697;SDS011;11010;49.548;11.926;2022-08-01T12:53:25;4.22;;;1.50;;
21697;SDS011;11010;49.548;11.926;2022-08-01T12:56:07;5.40;;;1.48;;
21697;SDS011;11010;49.548;11.926;2022-08-01T12:58:37;5.93;;;1.40;;
21697;SDS011;11010;49.548;11.926;2022-08-01T13:01:06;5.10;;;1.40;;
21697;SDS011;11010;49.548;11.926;2022-08-01T13:03:35;4.80;;;1.50;;
21697;SDS011;11010;49.548;11.926;2022-08-01T13:06:13;5.03;;;1.40;;
21697;SDS011;11010;49.548;11.926;2022-08-01T13:08:43;4.93;;;1.40;;
21697;SDS011;11010;49.548;11.926;2022-08-01T13:11:12;3.80;;;1.20;;
21697;SDS011;11010;49.548;11.926;2022-08-01T13:16:14;5.60;;;1.60;;
21697;SDS011;11010;49.548;11.926;2022-08-01T13:19:04;3.55;;;1.20;;
21697;SDS011;11010;49.548;11.926;2022-08-01T13:21:32;4.55;;;1.38;;
21697;SDS011;11010;49.548;11.926;2022-08-01T13:24:24;5.60;;;1.45;;
21697;SDS011;11010;49.548;11.926;2022-08-01T13:26:56;4.93;;;1.40;;
21697;SDS011;11010;49.548;11.926;2022-08-01T13:35:07;5.88;;;1.80;;
21697;SDS011;11010;49.548;11.926;2022-08-01T13:37:36;7.95;;;1.95;;
21697;SDS011;11010;49.548;11.926;2022-08-01T13:40:05;6.25;;;1.80;;
21697;SDS011;11010;49.548;11.926;2022-08-01T13:42:34;5.85;;;1.70;;
21697;SDS011;11010;49.548;11.926;2022-08-01T13:45:05;4.60;;;1.50;;
21697;SDS011;11010;49.548;11.926;2022-08-01T13:47:41;7.18;;;1.83;;
21697;SDS011;11010;49.548;11.926;2022-08-01T13:50:29;5.55;;;1.58;;
21697;SDS011;11010;49.548;11.926;2022-08-01T13:52:57;7.00;;;1.65;;
21697;SDS011;11010;49.548;11.926;2022-08-01T13:55:24;4.80;;;1.70;;
21697;SDS011;11010;49.548;11.926;2022-08-01T13:57:59;5.45;;;1.63;;
21697;SDS011;11010;49.548;11.926;2022-08-01T14:00:27;5.40;;;1.67;;
21697;SDS011;11010;49.548;11.926;2022-08-01T14:02:55;5.60;;;1.75;;
21697;SDS011;11010;49.548;11.926;2022-08-01T14:05:22;6.20;;;1.70;;
21697;SDS011;11010;49.548;11.926;2022-08-01T14:07:50;7.15;;;1.85;;
21697;SDS011;11010;49.548;11.926;2022-08-01T14:10:23;5.80;;;1.80;;
21697;SDS011;11010;49.548;11.926;2022-08-01T14:12:50;6.72;;;1.90;;
21697;SDS011;11010;49.548;11.926;2022-08-01T14:15:22;5.80;;;1.70;;
21697;SDS011;11010;49.548;11.926;2022-08-01T14:18:08;5.45;;;1.60;;
21697;SDS011;11010;49.548;11.926;2022-08-01T14:20:37;6.38;;;1.60;;
21697;SDS011;11010;49.548;11.926;2022-08-01T14:23:06;5.57;;;1.48;;
21697;SDS011;11010;49.548;11.926;2022-08-01T14:25:36;5.38;;;1.40;;
21697;SDS011;11010;49.548;11.926;2022-08-01T14:28:24;4.75;;;1.40;;
21697;SDS011;11010;49.548;11.926;2022-08-01T14:30:58;5.95;;;1.70;;
21697;SDS011;11010;49.548;11.926;2022-08-01T14:33:26;5.85;;;1.40;;
21697;SDS011;11010;49.548;11.926;2022-08-01T14:35:54;5.45;;;1.63;;
21697;SDS011;11010;49.548;11.926;2022-08-01T14:38:42;5.07;;;1.42;;
21697;SDS011;11010;49.548;11.926;2022-08-01T14:41:12;6.80;;;1.58;;
21697;SDS011;11010;49.548;11.926;2022-08-01T14:43:41;6.72;;;1.63;;
21697;SDS011;11010;49.548;11.926;2022-08-01T14:46:09;5.78;;;1.50;;
21697;SDS011;11010;49.548;11.926;2022-08-01T14:48:37;4.95;;;1.50;;
21697;SDS011;11010;49.548;11.926;2022-08-01T14:51:04;4.25;;;1.40;;
21697;SDS011;11010;49.548;11.926;2022-08-01T14:53:34;4.43;;;1.38;;
21697;SDS011;11010;49.548;11.926;2022-08-01T14:56:03;5.60;;;1.30;;
21697;SDS011;11010;49.548;11.926;2022-08-01T14:58:30;4.50;;;1.38;;
21697;SDS011;11010;49.548;11.926;2022-08-01T15:00:59;5.00;;;1.30;;
21697;SDS011;11010;49.548;11.926;2022-08-01T15:03:27;4.05;;;1.27;;
21697;SDS011;11010;49.548;11.926;2022-08-01T15:05:55;4.13;;;1.20;;
21697;SDS011;11010;49.548;11.926;2022-08-01T15:08:22;5.35;;;1.40;;
21697;SDS011;11010;49.548;11.926;2022-08-01T15:10:50;4.90;;;1.40;;
21697;SDS011;11010;49.548;11.926;2022-08-01T15:13:19;3.80;;;1.23;;
21697;SDS011;11010;49.548;11.926;2022-08-01T15:15:47;5.80;;;1.65;;
21697;SDS011;11010;49.548;11.926;2022-08-01T15:18:14;6.65;;;1.67;;
21697;SDS011;11010;49.548;11.926;2022-08-01T15:20:42;5.75;;;1.67;;
21697;SDS011;11010;49.548;11.926;2022-08-01T15:23:10;4.90;;;1.50;;
21697;SDS011;11010;49.548;11.926;2022-08-01T15:25:37;8.00;;;1.52;;
21697;SDS011;11010;49.548;11.926;2022-08-01T15:28:10;4.65;;;1.58;;
21697;SDS011;11010;49.548;11.926;2022-08-01T15:30:38;6.07;;;1.60;;